This is the latest recevied weather packets stored in our database for station/object W0NKY-13. If no packets are shown the sender has not sent any weather packets the latest 10 day(s).
| Time | Temp. | Humidity | Pressure | Rain* | Wind** | Luminosity | Snow |
|---|---|---|---|---|---|---|---|
| 1778045717 | 11.11° C | 93% | 1009.1 hPa | 2.03 mm | - | 0 W/m² | - |
| 1778044517 | 13.89° C | 92% | 1008.8 hPa | 0.76 mm | - | 0 W/m² | - |
| 1778038539 | 14.44° C | 95% | 1008.5 hPa | 0.51 mm | - | 0 W/m² | - |
| 1778033117 | 15° C | 94% | 1009.5 hPa | 1.52 mm | - | 0 W/m² | - |
| 1778031317 | 15° C | 94% | 1009.5 hPa | 0.51 mm | - | 0 W/m² | - |
| 1778025319 | 15.56° C | 93% | 1008.7 hPa | 0 mm | - | 7 W/m² | - |
| 1778024738 | 15.56° C | 93% | 1008.7 hPa | 0 mm | - | 6 W/m² | - |
| 1778024119 | 15.56° C | 93% | 1008.9 hPa | 0 mm | - | 10 W/m² | - |
| 1778022336 | 15.56° C | 92% | 1009.3 hPa | 0 mm | - | 12 W/m² | - |
| 1778020520 | 16.11° C | 92% | 1009.6 hPa | 0 mm | - | 45 W/m² | - |
| 1778019920 | 16.11° C | 92% | 1009.7 hPa | 0 mm | - | 30 W/m² | - |
| 1778019317 | 16.11° C | 92% | 1009.8 hPa | 0 mm | - | 45 W/m² | - |
| 1778018120 | 16.11° C | 92% | 1010 hPa | 0.25 mm | - | 39 W/m² | - |
| 1778016317 | 16.11° C | 92% | 1010.3 hPa | 0.51 mm | - | 47 W/m² | - |
| 1778015738 | 16.11° C | 92% | 1010.3 hPa | 1.02 mm | - | 44 W/m² | - |
| 1778015118 | 16.11° C | 92% | 1010.4 hPa | 1.27 mm | - | 41 W/m² | - |
| 1778013918 | 16.11° C | 92% | 1010.6 hPa | 2.03 mm | - | 25 W/m² | - |
| 1778013318 | 16.11° C | 92% | 1010.6 hPa | 2.03 mm | - | 35 W/m² | - |
| 1778012118 | 16.11° C | 92% | 1010.8 hPa | 2.29 mm | - | 47 W/m² | - |
| 1778008519 | 17.22° C | 88% | 1011.1 hPa | 2.54 mm | - | 32 W/m² | - |
| 1778007919 | 18.89° C | 80% | 1011.1 hPa | 1.02 mm | - | 14 W/m² | - |
| 1778003117 | 20.56° C | 65% | 1011.3 hPa | 0 mm | - | 80 W/m² | - |
| 1778002517 | 20.56° C | 65% | 1011.3 hPa | 0 mm | - | 152 W/m² | - |
| 1778001918 | 20.56° C | 64% | 1011.4 hPa | 0 mm | - | 139 W/m² | - |
| 1777997119 | 19.44° C | 67% | 1011.7 hPa | 0 mm | - | 114 W/m² | - |
* Rain latest hour (hover to see other rain measurements)
** Current wind speed in m/s (hover to see current wind gust speed)